Time;durP1;ratioP1;P1;durP2;ratioP2;P2;SDS_P1;SDS_P2;PMS_P1;PMS_P2;Temp;Humidity;BMP_temperature;BMP_pressure;BME280_temperature;BME280_humidity;BME280_pressure;Samples;Min_cycle;Max_cycle;Signal;HPM_P1;HPM_P2
2024/01/07 00:03:34;;;;;;;;;;;;;;;19.71;33.88;94775.81;10515874;28;2081;-67
2024/01/07 00:08:34;;;;;;;;;;;;;;;19.68;33.87;94777.16;10512373;28;1967;-67
2024/01/07 00:13:35;;;;;;;;;;;;;;;19.67;33.85;94778.25;10512002;28;2042;-67
2024/01/07 00:18:35;;;;;;;;;;;;;;;19.63;33.87;94787.78;10510283;28;2156;-66
2024/01/07 00:23:35;;;;;;;;;;;;;;;19.61;33.62;94776.00;10514129;28;1906;-67
2024/01/07 00:28:36;;;;;;;;;;;;;;;19.60;33.78;94780.47;10519104;28;2027;-66
2024/01/07 00:33:37;;;;;;;;;;;;;;;19.58;33.53;94779.22;10508057;28;1970;-67
2024/01/07 00:38:37;;;;;;;;;;;;;;;19.55;33.51;94785.06;10514248;28;2100;-67
2024/01/07 00:43:38;;;;;;;;;;;;;;;19.52;33.56;94775.88;10508983;28;2063;-67
2024/01/07 00:48:38;;;;;;;;;;;;;;;19.51;33.52;94778.81;10510284;28;2007;-66
2024/01/07 00:53:38;;;;;;;;;;;;;;;19.49;33.59;94771.97;10509996;28;2008;-66
2024/01/07 00:58:38;;;;;;;;;;;;;;;19.46;33.69;94777.84;10507682;28;2203;-66
2024/01/07 01:03:39;;;;;;;;;;;;;;;19.46;33.63;94777.06;10513403;28;1850;-66
2024/01/07 01:08:40;;;;;;;;;;;;;;;19.43;33.73;94783.66;10510487;28;2075;-66
2024/01/07 01:13:40;;;;;;;;;;;;;;;19.40;33.70;94784.25;10520621;28;1961;-67
2024/01/07 01:18:40;;;;;;;;;;;;;;;19.38;33.47;94781.13;10518505;28;1944;-67
2024/01/07 01:23:40;;;;;;;;;;;;;;;19.36;33.51;94780.63;10511937;28;2001;-66
2024/01/07 01:28:41;;;;;;;;;;;;;;;19.34;33.67;94790.66;10514296;28;2107;-66
2024/01/07 01:33:41;;;;;;;;;;;;;;;19.32;33.52;94779.63;10511408;28;2156;-67
2024/01/07 01:38:41;;;;;;;;;;;;;;;19.31;33.47;94780.69;10514099;28;2041;-66
2024/01/07 01:43:41;;;;;;;;;;;;;;;19.30;33.63;94783.59;10511567;28;2096;-66
2024/01/07 01:48:42;;;;;;;;;;;;;;;19.27;33.57;94778.91;10508100;28;2086;-67
2024/01/07 01:53:42;;;;;;;;;;;;;;;19.26;33.40;94775.53;10507003;28;2047;-68
2024/01/07 01:58:42;;;;;;;;;;;;;;;19.24;33.49;94775.03;10494400;28;1989;-67
2024/01/07 02:03:42;;;;;;;;;;;;;;;19.22;33.55;94776.38;10511670;28;4926;-67
2024/01/07 02:08:43;;;;;;;;;;;;;;;19.21;33.52;94772.19;10511178;28;2201;-67
2024/01/07 02:13:43;;;;;;;;;;;;;;;19.19;33.54;94780.34;10519021;28;1906;-66
2024/01/07 02:18:44;;;;;;;;;;;;;;;19.17;33.47;94769.38;10514966;28;1938;-66
2024/01/07 02:23:44;;;;;;;;;;;;;;;19.14;33.49;94769.16;10495625;28;2015;-67
2024/01/07 02:28:44;;;;;;;;;;;;;;;19.13;33.48;94771.00;10518374;28;2077;-67
2024/01/07 02:33:45;;;;;;;;;;;;;;;19.12;33.42;94768.66;10508727;28;2557;-67
2024/01/07 02:38:45;;;;;;;;;;;;;;;19.10;33.61;94781.31;10514065;28;1949;-67
2024/01/07 02:43:45;;;;;;;;;;;;;;;19.08;33.63;94778.19;10518527;28;1938;-67
2024/01/07 02:48:45;;;;;;;;;;;;;;;19.07;33.54;94782.66;10515065;28;1989;-66
2024/01/07 02:53:46;;;;;;;;;;;;;;;19.05;33.65;94776.91;10513612;28;2051;-66
2024/01/07 02:58:46;;;;;;;;;;;;;;;19.04;33.69;94774.59;10498982;28;2141;-66
2024/01/07 03:03:46;;;;;;;;;;;;;;;19.03;33.49;94773.78;10520278;28;5000;-66
2024/01/07 03:08:48;;;;;;;;;;;;;;;19.01;33.40;94770.69;10516461;28;2239;-66
2024/01/07 03:13:48;;;;;;;;;;;;;;;18.98;33.60;94767.84;10511267;28;1962;-66
2024/01/07 03:18:48;;;;;;;;;;;;;;;18.99;33.75;94769.41;10514729;28;1895;-67
2024/01/07 03:23:49;;;;;;;;;;;;;;;18.96;33.52;94770.75;10509239;28;1940;-66
2024/01/07 03:28:49;;;;;;;;;;;;;;;18.95;33.57;94769.19;10517212;28;2036;-66
2024/01/07 03:33:50;;;;;;;;;;;;;;;18.94;33.63;94775.50;10516196;28;2037;-66
2024/01/07 03:38:50;;;;;;;;;;;;;;;18.92;33.70;94766.38;10493028;28;2055;-67
2024/01/07 03:43:50;;;;;;;;;;;;;;;18.91;33.59;94772.69;10490788;28;1945;-65
2024/01/07 03:48:51;;;;;;;;;;;;;;;18.90;33.60;94779.75;10500409;28;1915;-67
2024/01/07 03:53:51;;;;;;;;;;;;;;;18.87;33.60;94788.22;10508445;28;2017;-66
2024/01/07 03:58:51;;;;;;;;;;;;;;;18.87;33.69;94784.81;10517934;28;2198;-66
2024/01/07 04:03:51;;;;;;;;;;;;;;;18.86;33.55;94784.03;10508532;28;4906;-66
2024/01/07 04:08:52;;;;;;;;;;;;;;;18.84;33.77;94785.38;10506890;28;2079;-66
2024/01/07 04:13:52;;;;;;;;;;;;;;;18.81;33.80;94784.13;10507974;28;1950;-65
2024/01/07 04:18:52;;;;;;;;;;;;;;;18.82;33.67;94782.25;10512474;28;1985;-67
2024/01/07 04:23:52;;;;;;;;;;;;;;;18.79;33.82;94788.88;10509434;28;2816;-65
2024/01/07 04:28:53;;;;;;;;;;;;;;;18.79;33.75;94788.88;10506676;28;2050;-65
2024/01/07 04:33:53;;;;;;;;;;;;;;;18.77;33.69;94804.13;10508233;28;6601;-67
2024/01/07 04:38:53;;;;;;;;;;;;;;;18.75;33.67;94797.59;10492151;28;2068;-67
2024/01/07 04:43:53;;;;;;;;;;;;;;;18.74;33.87;94806.53;10509342;28;2256;-67
2024/01/07 04:48:54;;;;;;;;;;;;;;;18.72;33.67;94809.44;10513846;28;2060;-66
2024/01/07 04:53:54;;;;;;;;;;;;;;;18.71;33.73;94813.16;10509300;28;2103;-66
2024/01/07 04:58:54;;;;;;;;;;;;;;;18.69;33.68;94810.03;10508469;28;1977;-66
2024/01/07 05:03:55;;;;;;;;;;;;;;;18.68;33.72;94824.19;10514226;28;1845;-66
2024/01/07 05:08:55;;;;;;;;;;;;;;;18.67;33.72;94823.41;10514087;28;2037;-66
2024/01/07 05:13:55;;;;;;;;;;;;;;;18.72;33.97;94840.94;10505021;28;2084;-67
2024/01/07 05:18:56;;;;;;;;;;;;;;;18.80;33.88;94840.31;10487513;28;1941;-67
2024/01/07 05:23:56;;;;;;;;;;;;;;;18.88;33.64;94844.13;10501528;28;1926;-66
2024/01/07 05:28:56;;;;;;;;;;;;;;;18.93;33.98;94836.97;10505766;28;2475;-67
2024/01/07 05:33:56;;;;;;;;;;;;;;;19.00;33.41;94841.88;10513169;28;2022;-67
2024/01/07 05:38:57;;;;;;;;;;;;;;;19.06;33.68;94840.75;10515613;28;2064;-67
2024/01/07 05:43:57;;;;;;;;;;;;;;;19.08;33.81;94834.13;10520932;28;2130;-67
2024/01/07 05:48:58;;;;;;;;;;;;;;;19.13;33.58;94841.94;10515727;28;2094;-68
2024/01/07 05:53:59;;;;;;;;;;;;;;;19.17;33.50;94850.81;10520628;28;2090;-69
2024/01/07 05:58:59;;;;;;;;;;;;;;;19.22;33.46;94850.72;10513739;28;2037;-68
2024/01/07 06:03:59;;;;;;;;;;;;;;;19.23;33.56;94856.75;10511429;28;2066;-68
2024/01/07 06:08:59;;;;;;;;;;;;;;;19.29;33.61;94861.66;10518150;28;2027;-68
2024/01/07 06:14:00;;;;;;;;;;;;;;;19.31;33.41;94872.66;10517647;28;1985;-67
2024/01/07 06:19:00;;;;;;;;;;;;;;;19.35;33.47;94872.91;10516039;28;2005;-67
2024/01/07 06:24:00;;;;;;;;;;;;;;;19.38;33.05;94873.09;10523046;28;1995;-67
2024/01/07 06:29:01;;;;;;;;;;;;;;;19.38;33.13;94870.47;10508267;28;2412;-68
2024/01/07 06:34:01;;;;;;;;;;;;;;;19.44;33.03;94884.31;10512497;28;2000;-67
2024/01/07 06:39:05;;;;;;;;;;;;;;;19.45;33.04;94885.88;10518910;28;2040;-67
2024/01/07 06:44:05;;;;;;;;;;;;;;;19.48;32.95;94886.09;10502772;28;2280;-67
2024/01/07 06:49:05;;;;;;;;;;;;;;;19.50;33.13;94888.41;10515896;28;2064;-67
2024/01/07 06:54:05;;;;;;;;;;;;;;;19.51;33.39;94895.25;10511303;28;2027;-67
2024/01/07 06:59:07;;;;;;;;;;;;;;;19.55;33.12;94903.34;10513354;28;2057;-67
2024/01/07 07:04:07;;;;;;;;;;;;;;;19.57;32.88;94907.25;10515235;28;2131;-67
2024/01/07 07:09:07;;;;;;;;;;;;;;;19.57;32.92;94909.88;10513844;28;1923;-67
2024/01/07 07:14:07;;;;;;;;;;;;;;;19.60;32.84;94921.69;10512692;28;2036;-68
2024/01/07 07:19:08;;;;;;;;;;;;;;;19.62;32.81;94924.78;10493073;28;1991;-67
2024/01/07 07:24:08;;;;;;;;;;;;;;;19.63;33.08;94928.97;10516237;28;2399;-67
2024/01/07 07:29:11;;;;;;;;;;;;;;;19.64;32.64;94933.19;10494669;28;1935;-67
2024/01/07 07:34:12;;;;;;;;;;;;;;;19.67;32.54;94938.63;10512329;28;2114;-68
2024/01/07 07:39:14;;;;;;;;;;;;;;;19.67;32.86;94943.09;10510973;28;2037;-67
2024/01/07 07:44:14;;;;;;;;;;;;;;;19.69;32.70;94948.84;10516964;28;1965;-68
2024/01/07 07:49:15;;;;;;;;;;;;;;;19.70;32.51;94948.56;10513075;28;1989;-68
2024/01/07 07:54:15;;;;;;;;;;;;;;;19.69;32.94;94959.38;10510378;28;2159;-67
2024/01/07 07:59:15;;;;;;;;;;;;;;;19.74;32.52;94970.59;10522327;28;1921;-67
2024/01/07 08:04:15;;;;;;;;;;;;;;;19.74;32.77;94969.84;10516966;28;1965;-66
2024/01/07 08:09:16;;;;;;;;;;;;;;;19.75;32.76;94968.75;10512671;28;1985;-68
2024/01/07 08:14:16;;;;;;;;;;;;;;;19.75;32.87;94981.91;10512630;28;1941;-67
2024/01/07 08:19:16;;;;;;;;;;;;;;;19.78;32.36;94989.22;10512372;28;2712;-68
2024/01/07 08:24:16;;;;;;;;;;;;;;;19.78;33.04;94989.22;10508896;28;2071;-68
2024/01/07 08:29:17;;;;;;;;;;;;;;;19.80;32.45;95000.25;10506252;28;2063;-68
2024/01/07 08:34:17;;;;;;;;;;;;;;;19.81;32.31;95005.22;10503936;28;2044;-68
2024/01/07 08:39:17;;;;;;;;;;;;;;;19.82;32.73;94995.47;10497483;28;1884;-67
2024/01/07 08:44:18;;;;;;;;;;;;;;;19.83;32.41;95000.44;10513759;28;1922;-67
2024/01/07 08:49:18;;;;;;;;;;;;;;;19.84;32.55;95009.91;10511831;28;1973;-66
2024/01/07 08:54:18;;;;;;;;;;;;;;;19.84;32.29;95019.63;10509334;28;2076;-68
2024/01/07 08:59:19;;;;;;;;;;;;;;;19.86;32.39;95020.13;10504936;28;2047;-68
2024/01/07 09:04:19;;;;;;;;;;;;;;;19.89;32.32;95033.47;10511086;28;1892;-76
2024/01/07 09:09:19;;;;;;;;;;;;;;;19.92;32.29;95037.41;10512468;28;2593;-68
2024/01/07 09:14:19;;;;;;;;;;;;;;;19.95;32.38;95042.06;10516286;28;2011;-68
2024/01/07 09:19:20;;;;;;;;;;;;;;;19.95;32.46;95052.59;10517901;28;2017;-68
2024/01/07 09:24:20;;;;;;;;;;;;;;;20.00;32.62;95052.53;10519007;28;2100;-66
2024/01/07 09:29:20;;;;;;;;;;;;;;;19.99;32.80;95050.97;10519912;28;1912;-63
2024/01/07 09:34:20;;;;;;;;;;;;;;;19.98;33.66;95055.47;10517707;28;1929;-71
2024/01/07 09:39:21;;;;;;;;;;;;;;;19.95;32.29;95049.97;10516588;28;1975;-71
2024/01/07 09:44:21;;;;;;;;;;;;;;;19.95;33.13;95053.38;10516763;28;1967;-73
2024/01/07 09:49:22;;;;;;;;;;;;;;;20.02;33.01;95058.28;10522099;28;1887;-66
2024/01/07 09:54:22;;;;;;;;;;;;;;;20.05;33.25;95061.13;10517874;28;2184;-74
2024/01/07 09:59:23;;;;;;;;;;;;;;;20.10;34.01;95057.63;10521602;28;1872;-65
2024/01/07 10:04:23;;;;;;;;;;;;;;;20.13;33.62;95060.47;10522480;28;2433;-68
2024/01/07 10:09:33;;;;;;;;;;;;;;;20.15;33.16;95055.69;10500251;28;2017;-67
2024/01/07 10:14:35;;;;;;;;;;;;;;;20.17;33.75;95060.69;10519596;28;2028;-71
2024/01/07 10:19:35;;;;;;;;;;;;;;;20.23;34.26;95065.63;10519227;28;1972;-71
2024/01/07 10:24:39;;;;;;;;;;;;;;;20.28;34.89;95070.00;10514379;28;1933;-74
2024/01/07 10:29:39;;;;;;;;;;;;;;;20.31;35.60;95066.81;10515035;28;1995;-72
2024/01/07 10:34:39;;;;;;;;;;;;;;;20.32;35.48;95071.00;10514828;28;2078;-73
2024/01/07 10:39:39;;;;;;;;;;;;;;;20.33;35.37;95069.94;10511615;28;1934;-74
2024/01/07 10:44:40;;;;;;;;;;;;;;;20.38;35.71;95075.09;10512611;28;1943;-73
2024/01/07 10:49:40;;;;;;;;;;;;;;;20.34;36.34;95066.22;10510026;28;2414;-71
2024/01/07 10:54:41;;;;;;;;;;;;;;;20.35;36.01;95073.06;10501287;28;2014;-70
2024/01/07 10:59:41;;;;;;;;;;;;;;;20.34;35.34;95079.38;10485231;28;2188;-71
2024/01/07 11:05:07;;;;;;;;;;;;;;;20.32;35.87;95083.41;10522360;28;2123;-70
2024/01/07 11:10:15;;;;;;;;;;;;;;;20.32;36.35;95072.88;10514446;28;1954;-78
2024/01/07 11:15:25;;;;;;;;;;;;;;;20.34;36.43;95074.13;10490778;28;1924;-74
2024/01/07 11:20:26;;;;;;;;;;;;;;;20.37;36.62;95078.03;10495152;28;2144;-73
2024/01/07 11:25:33;;;;;;;;;;;;;;;20.42;36.36;95073.50;10512347;28;2251;-69
2024/01/07 11:30:37;;;;;;;;;;;;;;;20.47;37.45;95078.66;10505615;28;2024;-65
2024/01/07 11:35:53;;;;;;;;;;;;;;;20.48;37.74;95082.88;10512983;28;2067;-64
2024/01/07 11:40:54;;;;;;;;;;;;;;;20.49;38.14;95087.03;10510122;28;1960;-66
2024/01/07 11:45:55;;;;;;;;;;;;;;;20.57;37.46;95085.59;10509768;28;2390;-69
2024/01/07 11:50:55;;;;;;;;;;;;;;;20.59;37.67;95083.44;10509530;28;2031;-68
2024/01/07 11:55:55;;;;;;;;;;;;;;;20.62;37.38;95083.69;10518154;28;2095;-69
2024/01/07 12:00:55;;;;;;;;;;;;;;;20.66;37.65;95082.03;10499966;28;1918;-69
2024/01/07 12:05:56;;;;;;;;;;;;;;;20.72;37.40;95086.13;10514684;28;1869;-66
2024/01/07 12:10:56;;;;;;;;;;;;;;;20.80;37.81;95093.38;10514384;28;1886;-74
2024/01/07 12:15:57;;;;;;;;;;;;;;;20.86;38.16;95100.09;10491675;28;2122;-74
2024/01/07 12:21:00;;;;;;;;;;;;;;;20.88;38.94;95103.22;10499148;28;1939;-75
2024/01/07 12:26:06;;;;;;;;;;;;;;;20.97;39.05;95108.59;10516749;28;1911;-74
2024/01/07 12:31:07;;;;;;;;;;;;;;;21.01;39.66;95109.59;10510632;28;2036;-65
2024/01/07 12:36:07;;;;;;;;;;;;;;;21.00;39.11;95108.81;10521450;28;2255;-62
2024/01/07 12:41:08;;;;;;;;;;;;;;;21.27;39.25;95115.22;10511578;28;2064;-67
2024/01/07 12:46:09;;;;;;;;;;;;;;;21.59;38.68;95118.53;10510719;28;1990;-71
2024/01/07 12:51:09;;;;;;;;;;;;;;;21.70;38.19;95117.22;10511449;28;2019;-71
2024/01/07 12:56:10;;;;;;;;;;;;;;;21.75;37.76;95126.88;10511787;28;2128;-66
2024/01/07 13:01:10;;;;;;;;;;;;;;;21.61;37.95;95131.41;10517523;28;2028;-70
2024/01/07 13:06:11;;;;;;;;;;;;;;;21.49;38.82;95134.56;10495560;28;1936;-68
2024/01/07 13:11:13;;;;;;;;;;;;;;;21.55;38.93;95135.22;10512028;28;1893;-68
2024/01/07 13:16:14;;;;;;;;;;;;;;;21.49;39.41;95147.72;10511618;28;2049;-68
2024/01/07 13:21:14;;;;;;;;;;;;;;;21.46;38.83;95155.44;10504411;28;2277;-68
2024/01/07 13:26:15;;;;;;;;;;;;;;;21.44;39.49;95162.84;10503570;28;2179;-69
2024/01/07 13:31:16;;;;;;;;;;;;;;;21.42;38.71;95162.38;10508808;28;2083;-68
2024/01/07 13:36:16;;;;;;;;;;;;;;;21.38;40.78;95164.03;10511216;28;2128;-68
2024/01/07 13:41:16;;;;;;;;;;;;;;;21.34;38.82;95168.31;10510717;28;1981;-68
2024/01/07 13:46:22;;;;;;;;;;;;;;;21.29;40.60;95178.97;10505922;28;1969;-69
2024/01/07 13:51:23;;;;;;;;;;;;;;;21.22;40.79;95174.06;10504399;28;2128;-68
2024/01/07 13:56:23;;;;;;;;;;;;;;;21.18;40.49;95183.63;10515362;28;2019;-68
2024/01/07 14:01:23;;;;;;;;;;;;;;;21.13;40.19;95188.19;10511799;28;1966;-68
2024/01/07 14:06:24;;;;;;;;;;;;;;;21.10;40.76;95196.69;10516099;28;1933;-68
2024/01/07 14:11:24;;;;;;;;;;;;;;;21.06;41.11;95197.25;10502125;28;1951;-75
2024/01/07 14:16:24;;;;;;;;;;;;;;;21.03;40.53;95202.34;10515845;28;2081;-72
2024/01/07 14:21:25;;;;;;;;;;;;;;;21.01;40.82;95212.34;10514003;28;2111;-72
2024/01/07 14:26:26;;;;;;;;;;;;;;;20.96;40.92;95226.38;10520605;28;1933;-71
2024/01/07 14:31:26;;;;;;;;;;;;;;;20.93;41.47;95220.91;10502193;28;2103;-72
2024/01/07 14:36:26;;;;;;;;;;;;;;;20.92;41.09;95225.41;10513659;28;1967;-72
2024/01/07 14:41:27;;;;;;;;;;;;;;;20.95;40.91;95234.59;10517160;28;1887;-71
2024/01/07 14:46:27;;;;;;;;;;;;;;;20.96;41.40;95236.13;10516582;28;1983;-72
2024/01/07 14:51:28;;;;;;;;;;;;;;;20.98;41.83;95244.53;10516082;28;1928;-69
2024/01/07 14:56:28;;;;;;;;;;;;;;;21.00;41.34;95245.81;10518523;28;2041;-70
2024/01/07 15:01:28;;;;;;;;;;;;;;;21.04;41.63;95259.25;10516936;28;1996;-70
2024/01/07 15:06:29;;;;;;;;;;;;;;;21.05;41.66;95258.97;10508535;28;2323;-70
2024/01/07 15:11:29;;;;;;;;;;;;;;;21.10;41.70;95259.94;10515768;28;1992;-69
2024/01/07 15:16:29;;;;;;;;;;;;;;;21.11;40.96;95275.47;10520397;28;1965;-71
2024/01/07 15:21:30;;;;;;;;;;;;;;;21.16;39.99;95269.34;10500313;28;2044;-72
2024/01/07 15:26:30;;;;;;;;;;;;;;;21.19;41.09;95276.66;10511929;28;2301;-72
2024/01/07 15:31:30;;;;;;;;;;;;;;;21.20;41.39;95284.28;10512389;28;2120;-66
2024/01/07 15:36:32;;;;;;;;;;;;;;;21.22;42.39;95284.78;10506350;28;1973;-67
2024/01/07 15:41:32;;;;;;;;;;;;;;;21.30;41.77;95294.66;10525882;28;2062;-66
2024/01/07 15:46:32;;;;;;;;;;;;;;;21.34;41.69;95300.91;10516028;28;1935;-67
2024/01/07 15:51:32;;;;;;;;;;;;;;;21.43;41.71;95311.59;10511668;28;2378;-70
2024/01/07 15:56:33;;;;;;;;;;;;;;;21.43;42.02;95308.97;10513192;28;2147;-69
2024/01/07 16:01:34;;;;;;;;;;;;;;;21.42;42.70;95317.94;10523081;28;1518;-70
2024/01/07 16:06:34;;;;;;;;;;;;;;;21.46;42.67;95324.19;10524743;28;1793;-69
2024/01/07 16:11:34;;;;;;;;;;;;;;;21.46;42.67;95329.47;10517281;28;1485;-68
2024/01/07 16:16:37;;;;;;;;;;;;;;;21.47;42.11;95331.03;10521520;28;1909;-69
2024/01/07 16:21:38;;;;;;;;;;;;;;;21.46;42.72;95345.28;10513123;28;1587;-69
2024/01/07 16:26:42;;;;;;;;;;;;;;;21.46;42.69;95361.91;10517880;28;1447;-69
2024/01/07 16:31:43;;;;;;;;;;;;;;;21.47;43.08;95358.19;10518143;28;2328;-70
2024/01/07 16:36:43;;;;;;;;;;;;;;;21.56;42.37;95368.84;10512427;28;1981;-69
2024/01/07 16:41:43;;;;;;;;;;;;;;;21.65;42.78;95372.41;10519101;28;1947;-69
2024/01/07 16:46:43;;;;;;;;;;;;;;;21.73;41.39;95375.16;10512338;28;1432;-69
2024/01/07 16:51:44;;;;;;;;;;;;;;;21.80;41.27;95382.72;10522470;28;1472;-68
2024/01/07 16:56:44;;;;;;;;;;;;;;;21.88;40.40;95390.00;10515421;28;1905;-69
2024/01/07 17:01:45;;;;;;;;;;;;;;;21.92;40.98;95390.97;10519987;28;1488;-69
2024/01/07 17:06:45;;;;;;;;;;;;;;;21.95;40.45;95384.34;10511242;28;1559;-68
2024/01/07 17:11:45;;;;;;;;;;;;;;;21.99;39.70;95391.38;10526586;28;1598;-68
2024/01/07 17:16:46;;;;;;;;;;;;;;;21.98;40.85;95399.59;10514294;28;2235;-69
2024/01/07 17:21:48;;;;;;;;;;;;;;;22.01;39.50;95399.78;10515422;28;2412;-69
2024/01/07 17:26:50;;;;;;;;;;;;;;;22.03;40.81;95405.53;10512547;28;1972;-69
2024/01/07 17:31:50;;;;;;;;;;;;;;;22.05;39.47;95416.59;10519860;28;1973;-69
2024/01/07 17:36:50;;;;;;;;;;;;;;;22.07;40.17;95419.72;10521308;28;2442;-66
2024/01/07 17:41:51;;;;;;;;;;;;;;;22.07;40.22;95430.28;10520422;28;2002;-73
2024/01/07 17:46:51;;;;;;;;;;;;;;;22.08;39.91;95431.88;10515081;28;2222;-70
2024/01/07 17:51:51;;;;;;;;;;;;;;;22.08;40.34;95442.44;10512913;28;1997;-69
2024/01/07 17:56:51;;;;;;;;;;;;;;;22.09;40.50;95448.50;10497175;28;2040;-68
2024/01/07 18:01:52;;;;;;;;;;;;;;;22.08;40.93;95452.97;10519196;28;1913;-69
2024/01/07 18:06:53;;;;;;;;;;;;;;;21.95;39.24;95455.59;10515646;28;1919;-69
2024/01/07 18:11:53;;;;;;;;;;;;;;;21.88;36.57;95461.25;10524399;28;1873;-68
2024/01/07 18:16:53;;;;;;;;;;;;;;;21.82;36.19;95465.78;10511407;28;2139;-69
2024/01/07 18:21:54;;;;;;;;;;;;;;;21.78;35.41;95469.28;10507225;28;2258;-68
2024/01/07 18:26:56;;;;;;;;;;;;;;;21.78;35.00;95474.56;10501067;28;2119;-69
2024/01/07 18:31:56;;;;;;;;;;;;;;;21.78;35.14;95479.84;10520938;28;1941;-68
2024/01/07 18:36:57;;;;;;;;;;;;;;;21.88;36.36;95485.00;10522959;28;2157;-69
2024/01/07 18:41:57;;;;;;;;;;;;;;;21.92;36.30;95490.47;10510798;28;1890;-68
2024/01/07 18:47:00;;;;;;;;;;;;;;;21.93;37.30;95503.38;10514522;28;2001;-67
2024/01/07 18:52:00;;;;;;;;;;;;;;;22.01;39.17;95512.50;10519224;28;1946;-71
2024/01/07 18:57:02;;;;;;;;;;;;;;;22.10;38.66;95506.28;10518261;28;1965;-69
2024/01/07 19:02:03;;;;;;;;;;;;;;;22.14;37.55;95507.25;10513123;28;2001;-68
2024/01/07 19:07:03;;;;;;;;;;;;;;;22.19;37.06;95511.69;10517362;28;2102;-63
2024/01/07 19:12:03;;;;;;;;;;;;;;;22.21;36.60;95512.97;10513100;28;2017;-70
2024/01/07 19:17:04;;;;;;;;;;;;;;;22.24;35.91;95520.28;10512223;28;2087;-65
2024/01/07 19:22:05;;;;;;;;;;;;;;;22.27;37.18;95524.22;10507853;28;2679;-66
2024/01/07 19:27:05;;;;;;;;;;;;;;;22.27;37.28;95535.56;10516938;28;2183;-68
2024/01/07 19:32:05;;;;;;;;;;;;;;;22.27;35.70;95534.78;10512778;28;1955;-68
2024/01/07 19:37:05;;;;;;;;;;;;;;;22.26;35.89;95551.69;10513120;28;2049;-68
2024/01/07 19:42:07;;;;;;;;;;;;;;;22.23;35.19;95550.41;10511025;28;1928;-68
2024/01/07 19:47:07;;;;;;;;;;;;;;;22.13;33.64;95566.44;10519018;28;2064;-70
2024/01/07 19:52:07;;;;;;;;;;;;;;;22.02;33.15;95565.00;10515770;28;2316;-68
2024/01/07 19:57:08;;;;;;;;;;;;;;;21.94;34.23;95564.84;10493238;28;2161;-65
2024/01/07 20:02:08;;;;;;;;;;;;;;;21.87;33.97;95567.84;10496277;28;2010;-69
2024/01/07 20:07:08;;;;;;;;;;;;;;;21.85;35.33;95572.63;10511239;28;2035;-68
2024/01/07 20:12:09;;;;;;;;;;;;;;;21.45;34.46;95581.81;10513661;28;2080;-70
2024/01/07 20:17:09;;;;;;;;;;;;;;;21.01;34.57;95589.97;10509981;28;2603;-70
2024/01/07 20:22:11;;;;;;;;;;;;;;;21.03;35.88;95590.50;10495147;28;2006;-69
2024/01/07 20:27:11;;;;;;;;;;;;;;;21.22;36.70;95593.19;10489587;28;2005;-69
2024/01/07 20:32:13;;;;;;;;;;;;;;;21.24;37.97;95606.09;10500582;28;1988;-64
2024/01/07 20:37:13;;;;;;;;;;;;;;;21.28;36.48;95601.81;10487069;28;2046;-71
2024/01/07 20:42:13;;;;;;;;;;;;;;;21.33;35.74;95602.53;10508810;28;2203;-71
2024/01/07 20:47:13;;;;;;;;;;;;;;;21.36;35.68;95614.38;10505058;28;2182;-70
2024/01/07 20:52:18;;;;;;;;;;;;;;;21.38;35.76;95613.03;10510807;28;1977;-70
2024/01/07 20:57:18;;;;;;;;;;;;;;;21.40;35.95;95621.47;10509325;28;2032;-69
2024/01/07 21:02:19;;;;;;;;;;;;;;;21.39;35.22;95619.09;10505859;28;2509;-70
2024/01/07 21:07:19;;;;;;;;;;;;;;;21.38;35.50;95614.88;10508612;28;2087;-69
2024/01/07 21:12:19;;;;;;;;;;;;;;;21.37;35.29;95621.25;10494882;28;2025;-71
2024/01/07 21:17:19;;;;;;;;;;;;;;;21.36;35.09;95624.94;10508543;28;2241;-72
2024/01/07 21:22:20;;;;;;;;;;;;;;;21.33;34.78;95626.28;10468761;28;1132652;-69
2024/01/07 21:27:20;;;;;;;;;;;;;;;21.31;34.93;95627.63;10518423;28;1869;-70
2024/01/07 21:32:20;;;;;;;;;;;;;;;21.27;35.06;95629.25;10512657;28;1916;-69
2024/01/07 21:37:21;;;;;;;;;;;;;;;21.20;34.70;95624.31;10517221;28;1971;-71
2024/01/07 21:42:21;;;;;;;;;;;;;;;21.18;34.67;95631.72;10512775;28;2033;-70
2024/01/07 21:47:22;;;;;;;;;;;;;;;21.15;34.95;95634.91;10514768;28;1835;-70
2024/01/07 21:52:27;;;;;;;;;;;;;;;21.12;34.69;95640.75;10514874;28;2556;-70
2024/01/07 21:57:27;;;;;;;;;;;;;;;21.08;34.59;95636.31;10511802;28;2107;-69
2024/01/07 22:02:28;;;;;;;;;;;;;;;21.04;34.50;95639.50;10496864;28;2345;-71
2024/01/07 22:07:28;;;;;;;;;;;;;;;21.00;34.12;95646.34;10513082;28;1931;-72
2024/01/07 22:12:28;;;;;;;;;;;;;;;20.96;34.36;95655.09;10511918;28;2231;-72
2024/01/07 22:17:29;;;;;;;;;;;;;;;20.96;34.29;95657.72;10520895;28;2039;-71
2024/01/07 22:22:30;;;;;;;;;;;;;;;20.90;34.59;95659.63;10519617;28;2493;-71
2024/01/07 22:27:33;;;;;;;;;;;;;;;20.89;34.36;95652.00;10520786;28;1896;-71
2024/01/07 22:32:33;;;;;;;;;;;;;;;20.84;34.20;95658.09;10519464;28;1897;-71
2024/01/07 22:37:34;;;;;;;;;;;;;;;20.82;34.40;95662.88;10514973;28;2347;-71
2024/01/07 22:42:34;;;;;;;;;;;;;;;20.79;34.11;95667.91;10520846;28;2124;-70
2024/01/07 22:47:35;;;;;;;;;;;;;;;20.76;33.85;95671.09;10514265;28;2290;-71
2024/01/07 22:52:35;;;;;;;;;;;;;;;20.71;34.31;95677.16;10520459;28;1933;-72
2024/01/07 22:57:35;;;;;;;;;;;;;;;20.68;34.02;95683.00;10507272;28;1922;-70
2024/01/07 23:02:36;;;;;;;;;;;;;;;20.65;33.99;95683.53;10515520;28;2158;-70
2024/01/07 23:07:36;;;;;;;;;;;;;;;20.62;34.07;95689.38;10515548;28;1971;-71
2024/01/07 23:12:36;;;;;;;;;;;;;;;20.59;33.84;95687.28;10525732;28;1873;-71
2024/01/07 23:17:39;;;;;;;;;;;;;;;20.55;33.62;95688.88;10517732;28;2263;-71
2024/01/07 23:22:39;;;;;;;;;;;;;;;20.52;33.71;95689.44;10516535;28;2483;-71
2024/01/07 23:27:40;;;;;;;;;;;;;;;20.49;33.71;95695.25;10511107;28;1955;-70
2024/01/07 23:32:40;;;;;;;;;;;;;;;20.46;33.51;95698.44;10514116;28;1905;-71
2024/01/07 23:37:41;;;;;;;;;;;;;;;20.42;33.47;95704.53;10514724;28;2033;-71
2024/01/07 23:42:41;;;;;;;;;;;;;;;20.39;33.29;95699.78;10515135;28;2067;-71
2024/01/07 23:47:41;;;;;;;;;;;;;;;20.37;33.46;95702.72;10515130;28;2103;-71
2024/01/07 23:52:41;;;;;;;;;;;;;;;20.32;33.48;95705.34;10495364;28;2201;-71
2024/01/07 23:57:42;;;;;;;;;;;;;;;20.28;33.59;95709.59;10507468;28;2096;-70
